createdAt,value
2023-06-04T00:02:06.873Z,4.60
2023-06-04T00:04:36.531Z,4.60
2023-06-04T00:07:07.866Z,4.60
2023-06-04T00:09:36.121Z,4.50
2023-06-04T00:12:04.900Z,4.50
2023-06-04T00:14:33.298Z,4.50
2023-06-04T00:17:01.603Z,4.50
2023-06-04T00:19:29.852Z,4.40
2023-06-04T00:21:59.498Z,4.40
2023-06-04T00:24:27.741Z,4.40
2023-06-04T00:26:56.042Z,4.40
2023-06-04T00:29:24.259Z,4.50
2023-06-04T00:31:52.610Z,4.50
2023-06-04T00:34:20.947Z,4.50
2023-06-04T00:36:49.223Z,4.40
2023-06-04T00:39:18.879Z,4.40
2023-06-04T00:41:47.190Z,4.30
2023-06-04T00:44:15.487Z,4.30
2023-06-04T00:46:46.647Z,4.20
2023-06-04T00:49:15.032Z,4.20
2023-06-04T00:51:43.664Z,4.20
2023-06-04T00:54:12.851Z,4.30
2023-06-04T00:56:43.141Z,4.30
2023-06-04T00:59:11.632Z,4.30
2023-06-04T01:01:47.899Z,4.20
2023-06-04T01:04:23.089Z,4.10
2023-06-04T01:06:53.345Z,4.00
2023-06-04T01:09:22.550Z,4.00
2023-06-04T01:11:52.175Z,3.90
2023-06-04T01:14:20.571Z,3.90
2023-06-04T01:16:51.669Z,3.80
2023-06-04T01:19:48.906Z,3.80
2023-06-04T01:22:25.440Z,3.80
2023-06-04T01:24:58.190Z,3.70
2023-06-04T01:27:28.194Z,3.60
2023-06-04T01:29:58.037Z,3.60
2023-06-04T01:32:27.371Z,3.60
2023-06-04T01:34:56.235Z,3.60
2023-06-04T01:37:24.821Z,3.50
2023-06-04T01:39:53.147Z,3.50
2023-06-04T01:42:21.444Z,3.40
2023-06-04T01:44:51.343Z,3.40
2023-06-04T01:47:19.636Z,3.50
2023-06-04T01:49:48.457Z,3.50
2023-06-04T01:52:17.353Z,3.50
2023-06-04T01:54:45.656Z,3.40
2023-06-04T01:57:13.931Z,3.40
2023-06-04T01:59:43.223Z,3.30
2023-06-04T02:02:13.022Z,3.30
2023-06-04T02:04:42.685Z,3.30
2023-06-04T02:07:11.436Z,3.30
2023-06-04T02:09:39.803Z,3.40
2023-06-04T02:12:08.957Z,3.40
2023-06-04T02:14:38.235Z,3.30
2023-06-04T02:17:13.633Z,3.20
2023-06-04T02:19:45.784Z,3.10
2023-06-04T02:22:14.148Z,3.10
2023-06-04T02:27:12.775Z,3.00
2023-06-04T02:29:41.650Z,3.00
2023-06-04T02:32:10.706Z,3.00
2023-06-04T02:34:39.387Z,3.00
2023-06-04T02:37:09.153Z,3.00
2023-06-04T02:39:37.953Z,3.00
2023-06-04T02:42:06.889Z,3.00
2023-06-04T02:44:35.234Z,3.00
2023-06-04T02:47:03.525Z,3.00
2023-06-04T02:49:32.067Z,2.90
2023-06-04T02:52:00.340Z,2.80
2023-06-04T02:54:29.979Z,2.80
2023-06-04T02:56:58.234Z,2.80
2023-06-04T02:59:27.013Z,2.80
2023-06-04T03:01:55.514Z,2.80
2023-06-04T03:04:23.970Z,2.80
2023-06-04T03:06:58.419Z,2.80
2023-06-04T03:09:26.702Z,2.80
2023-06-04T03:11:56.408Z,2.80
2023-06-04T03:14:24.746Z,2.80
2023-06-04T03:16:53.615Z,2.80
2023-06-04T03:19:21.871Z,2.90
2023-06-04T03:21:53.282Z,2.90
2023-06-04T03:24:21.669Z,3.00
2023-06-04T03:26:49.904Z,3.00
2023-06-04T03:29:19.598Z,2.90
2023-06-04T03:31:47.976Z,2.90
2023-06-04T03:34:16.342Z,3.00
2023-06-04T03:36:44.879Z,3.00
2023-06-04T03:39:13.097Z,3.10
2023-06-04T03:41:41.359Z,3.00
2023-06-04T03:44:09.659Z,3.10
2023-06-04T03:46:39.507Z,3.10
2023-06-04T03:49:07.755Z,3.20
2023-06-04T03:51:36.197Z,3.20
2023-06-04T03:54:05.020Z,3.30
2023-06-04T03:56:33.534Z,3.40
2023-06-04T03:59:01.821Z,3.40
2023-06-04T04:01:31.048Z,3.50
2023-06-04T04:04:00.795Z,3.60
2023-06-04T04:06:29.131Z,3.60
2023-06-04T04:08:57.597Z,3.70
2023-06-04T04:11:26.808Z,3.90
2023-06-04T04:13:55.155Z,4.10
2023-06-04T04:16:23.405Z,4.20
2023-06-04T04:18:51.775Z,4.40
2023-06-04T04:21:22.104Z,4.50
2023-06-04T04:23:52.713Z,4.70
2023-06-04T04:26:21.160Z,5.00
2023-06-04T04:28:49.391Z,5.20
2023-06-04T04:31:18.794Z,5.30
2023-06-04T04:33:47.684Z,5.50
2023-06-04T04:36:16.047Z,5.70
2023-06-04T04:38:46.047Z,5.90
2023-06-04T04:41:14.328Z,6.10
2023-06-04T04:43:42.629Z,6.30
2023-06-04T04:46:11.034Z,6.60
2023-06-04T04:48:41.756Z,6.90
2023-06-04T04:51:10.016Z,7.20
2023-06-04T04:53:38.279Z,7.60
2023-06-04T04:56:08.327Z,8.00
2023-06-04T04:58:36.596Z,8.30
2023-06-04T05:01:04.954Z,8.70
2023-06-04T05:03:33.345Z,9.10
2023-06-04T05:06:01.680Z,9.90
2023-06-04T05:08:29.948Z,11.10
2023-06-04T05:10:58.164Z,12.40
2023-06-04T05:13:28.177Z,13.50
2023-06-04T05:15:56.434Z,14.60
2023-06-04T05:18:30.212Z,15.50
2023-06-04T05:20:59.135Z,16.30
2023-06-04T05:23:27.502Z,17.00
2023-06-04T05:25:56.214Z,17.30
2023-06-04T05:28:26.157Z,17.70
2023-06-04T05:31:00.096Z,18.10
2023-06-04T05:33:28.954Z,18.80
2023-06-04T05:36:00.060Z,19.60
2023-06-04T05:38:28.415Z,20.10
2023-06-04T05:40:57.194Z,20.60
2023-06-04T05:43:25.511Z,21.00
2023-06-04T05:45:55.360Z,21.40
2023-06-04T05:48:23.772Z,21.70
2023-06-04T05:50:51.985Z,21.80
2023-06-04T05:53:20.268Z,21.60
2023-06-04T05:55:48.481Z,21.60
2023-06-04T05:58:17.034Z,22.00
2023-06-04T06:00:45.952Z,22.60
2023-06-04T06:03:17.735Z,22.90
2023-06-04T06:05:46.610Z,23.00
2023-06-04T06:08:16.256Z,23.40
2023-06-04T06:10:44.524Z,22.90
2023-06-04T06:13:12.846Z,23.10
2023-06-04T06:15:41.322Z,23.30
2023-06-04T06:18:10.096Z,23.20
2023-06-04T06:20:39.773Z,23.20
2023-06-04T06:23:09.192Z,23.80
2023-06-04T06:25:41.567Z,23.90
2023-06-04T06:28:09.873Z,23.60
2023-06-04T06:30:38.129Z,23.20
2023-06-04T06:33:06.534Z,22.70
2023-06-04T06:35:39.211Z,22.40
2023-06-04T06:38:07.467Z,21.80
2023-06-04T06:40:36.059Z,21.40
2023-06-04T06:43:04.275Z,21.50
2023-06-04T06:45:32.544Z,21.70
2023-06-04T06:48:00.834Z,22.00
2023-06-04T06:50:29.217Z,22.00
2023-06-04T06:52:58.899Z,22.20
2023-06-04T06:55:27.117Z,22.90
2023-06-04T06:57:57.576Z,22.60
2023-06-04T07:00:26.172Z,22.30
2023-06-04T07:02:54.836Z,22.00
2023-06-04T07:05:23.304Z,21.50
2023-06-04T07:07:51.508Z,21.40
2023-06-04T07:10:21.185Z,21.50
2023-06-04T07:12:49.471Z,21.90
2023-06-04T07:15:17.731Z,21.80
2023-06-04T07:17:46.030Z,21.70
2023-06-04T07:20:17.177Z,21.70
2023-06-04T07:22:45.472Z,21.60
2023-06-04T07:25:13.746Z,22.00
2023-06-04T07:27:43.456Z,22.00
2023-06-04T07:30:12.397Z,22.00
2023-06-04T07:32:40.768Z,22.70
2023-06-04T07:35:10.251Z,23.20
2023-06-04T07:37:38.524Z,22.90
2023-06-04T07:40:07.940Z,22.80
2023-06-04T07:42:36.162Z,22.80
2023-06-04T07:45:06.634Z,23.40
2023-06-04T07:47:34.868Z,23.80
2023-06-04T07:50:03.814Z,24.40
2023-06-04T07:52:32.139Z,23.90
2023-06-04T07:55:01.196Z,23.80
2023-06-04T07:57:32.913Z,23.10
2023-06-04T08:00:02.879Z,23.10
2023-06-04T08:02:32.579Z,22.60
2023-06-04T08:05:00.966Z,22.10
2023-06-04T08:07:29.379Z,22.60
2023-06-04T08:09:57.781Z,22.70
2023-06-04T08:12:25.991Z,22.80
2023-06-04T08:14:57.913Z,22.80
2023-06-04T08:17:26.333Z,22.50
2023-06-04T08:19:56.433Z,22.10
2023-06-04T08:22:24.685Z,22.40
2023-06-04T08:24:52.931Z,23.00
2023-06-04T08:27:21.131Z,24.00
2023-06-04T08:29:49.417Z,24.00
2023-06-04T08:32:23.296Z,24.50
2023-06-04T08:34:52.075Z,24.60
2023-06-04T08:37:21.895Z,24.30
2023-06-04T08:39:50.156Z,23.20
2023-06-04T08:42:24.428Z,23.40
2023-06-04T08:44:54.055Z,23.90
2023-06-04T08:47:24.151Z,24.30
2023-06-04T08:49:55.909Z,24.00
2023-06-04T08:52:26.772Z,24.20
2023-06-04T08:54:57.908Z,23.70
2023-06-04T08:57:26.220Z,22.80
2023-06-04T08:59:54.886Z,22.70
2023-06-04T09:02:23.513Z,22.80
2023-06-04T09:04:52.174Z,23.20
2023-06-04T09:07:20.829Z,23.70
2023-06-04T09:10:04.195Z,24.20
2023-06-04T09:12:43.840Z,24.80
2023-06-04T09:15:12.715Z,25.00
2023-06-04T09:17:41.240Z,24.70
2023-06-04T09:20:10.625Z,24.50
2023-06-04T09:22:39.792Z,25.00
2023-06-04T09:25:22.363Z,24.70
2023-06-04T09:27:51.171Z,24.00
2023-06-04T09:30:19.808Z,24.10
2023-06-04T09:32:48.109Z,24.20
2023-06-04T09:35:18.337Z,23.60
2023-06-04T09:37:59.656Z,23.70
2023-06-04T09:40:40.378Z,24.10
2023-06-04T09:43:09.181Z,24.00
2023-06-04T09:45:37.785Z,24.50
2023-06-04T09:48:10.171Z,24.00
2023-06-04T09:50:40.373Z,23.60
2023-06-04T09:53:16.538Z,24.00
2023-06-04T09:55:46.791Z,24.20
2023-06-04T09:58:16.249Z,24.40
2023-06-04T10:00:49.883Z,24.70
2023-06-04T10:03:24.567Z,24.90
2023-06-04T10:05:54.844Z,25.10
2023-06-04T10:08:24.822Z,24.90
2023-06-04T10:10:56.838Z,24.90
2023-06-04T10:13:28.554Z,25.70
2023-06-04T10:15:59.743Z,25.60
2023-06-04T10:18:30.904Z,25.10
2023-06-04T10:21:02.546Z,24.70
2023-06-04T10:23:31.808Z,25.30
2023-06-04T10:26:02.418Z,25.10
2023-06-04T10:28:33.520Z,25.60
2023-06-04T10:31:02.266Z,26.30
2023-06-04T10:33:30.549Z,26.20
2023-06-04T10:35:59.002Z,25.60
2023-06-04T10:38:27.369Z,25.90
2023-06-04T10:40:55.812Z,25.90
2023-06-04T10:43:32.889Z,25.80
2023-06-04T10:46:13.133Z,26.30
2023-06-04T10:48:48.304Z,26.30
2023-06-04T10:51:17.065Z,25.70
2023-06-04T10:53:45.593Z,25.40
2023-06-04T10:56:13.896Z,25.20
2023-06-04T10:58:43.504Z,25.50
2023-06-04T11:01:11.866Z,25.00
2023-06-04T11:03:41.245Z,25.10
2023-06-04T11:06:19.034Z,25.40
2023-06-04T11:08:47.392Z,25.30
2023-06-04T11:11:16.209Z,24.90
2023-06-04T11:13:46.477Z,25.30
2023-06-04T11:16:19.216Z,25.50
2023-06-04T11:18:57.445Z,25.80
2023-06-04T11:21:27.995Z,26.20
2023-06-04T11:24:00.032Z,25.50
2023-06-04T11:26:33.471Z,25.40
2023-06-04T11:29:03.994Z,26.00
2023-06-04T11:31:44.113Z,25.40
2023-06-04T11:34:13.182Z,24.50
2023-06-04T11:36:41.686Z,24.30
2023-06-04T11:39:09.925Z,24.00
2023-06-04T11:41:38.809Z,24.60
2023-06-04T11:44:11.272Z,25.20
2023-06-04T11:46:44.401Z,25.20
2023-06-04T11:49:17.064Z,25.90
2023-06-04T11:51:48.943Z,26.10
2023-06-04T11:54:21.624Z,25.50
2023-06-04T11:56:52.726Z,25.40
2023-06-04T11:59:22.890Z,25.60
2023-06-04T12:01:51.925Z,26.00
2023-06-04T12:04:22.179Z,26.20
2023-06-04T12:06:54.887Z,26.20
2023-06-04T12:09:23.800Z,26.50
2023-06-04T12:11:52.100Z,26.80
2023-06-04T12:14:23.244Z,26.90
2023-06-04T12:16:58.360Z,26.40
2023-06-04T12:19:27.422Z,25.70
2023-06-04T12:22:03.766Z,25.80
2023-06-04T12:24:38.544Z,26.20
2023-06-04T12:27:09.367Z,26.20
2023-06-04T12:29:39.241Z,26.20
2023-06-04T12:32:12.328Z,25.90
2023-06-04T12:34:42.064Z,25.90
2023-06-04T12:37:10.740Z,25.70
2023-06-04T12:39:39.037Z,26.20
2023-06-04T12:42:09.466Z,27.10
2023-06-04T12:44:43.977Z,26.70
2023-06-04T12:47:12.590Z,26.20
2023-06-04T12:49:41.523Z,25.90
2023-06-04T12:52:15.401Z,26.30
2023-06-04T12:54:44.648Z,26.50
2023-06-04T12:57:13.111Z,27.00
2023-06-04T12:59:42.734Z,27.60
2023-06-04T13:02:10.998Z,27.40
2023-06-04T13:04:39.242Z,26.60
2023-06-04T13:07:07.882Z,27.10
2023-06-04T13:09:36.253Z,27.50
2023-06-04T13:12:06.117Z,27.80
2023-06-04T13:14:37.594Z,27.90
2023-06-04T13:17:20.897Z,27.90
2023-06-04T13:19:50.635Z,28.20
2023-06-04T13:22:18.950Z,27.70
2023-06-04T13:24:47.222Z,26.60
2023-06-04T13:27:15.547Z,26.20
2023-06-04T13:29:44.883Z,25.60
2023-06-04T13:32:14.964Z,25.80
2023-06-04T13:34:43.296Z,26.10
2023-06-04T13:37:13.207Z,26.60
2023-06-04T13:39:41.516Z,26.90
2023-06-04T13:42:09.864Z,27.40
2023-06-04T13:44:38.124Z,26.90
2023-06-04T13:47:06.887Z,26.40
2023-06-04T13:49:36.885Z,26.90
2023-06-04T13:52:05.273Z,26.40
2023-06-04T13:54:33.680Z,26.50
2023-06-04T13:57:04.922Z,26.30
2023-06-04T13:59:33.283Z,25.70
2023-06-04T14:02:02.523Z,25.20
2023-06-04T14:04:30.831Z,25.20
2023-06-04T14:07:00.655Z,25.40
2023-06-04T14:09:28.936Z,25.80
2023-06-04T14:11:57.330Z,26.50
2023-06-04T14:14:25.591Z,27.10
2023-06-04T14:16:58.394Z,27.40
2023-06-04T14:19:27.109Z,27.50
2023-06-04T14:21:55.373Z,27.60
2023-06-04T14:24:25.013Z,26.90
2023-06-04T14:26:53.226Z,27.20
2023-06-04T14:29:21.519Z,27.00
2023-06-04T14:31:49.812Z,26.10
2023-06-04T14:34:18.059Z,26.00
2023-06-04T14:36:46.276Z,25.50
2023-06-04T14:39:14.939Z,25.50
2023-06-04T14:41:44.595Z,25.40
2023-06-04T14:44:12.873Z,25.70
2023-06-04T14:46:42.450Z,25.60
2023-06-04T14:49:11.009Z,25.40
2023-06-04T14:51:39.258Z,24.90
2023-06-04T14:54:07.654Z,24.40
2023-06-04T14:56:35.897Z,24.70
2023-06-04T14:59:12.323Z,24.80
2023-06-04T15:01:41.804Z,24.60
2023-06-04T15:04:13.160Z,24.60
2023-06-04T15:06:41.448Z,25.20
2023-06-04T15:09:09.660Z,25.40
2023-06-04T15:11:37.901Z,25.70
2023-06-04T15:14:07.518Z,26.00
2023-06-04T15:16:35.821Z,26.50
2023-06-04T15:19:07.104Z,26.10
2023-06-04T15:21:35.358Z,25.80
2023-06-04T15:24:03.756Z,25.90
2023-06-04T15:26:32.180Z,26.50
2023-06-04T15:29:00.411Z,26.60
2023-06-04T15:31:30.113Z,26.40
2023-06-04T15:33:58.399Z,26.30
2023-06-04T15:36:26.639Z,26.50
2023-06-04T15:38:54.865Z,26.70
2023-06-04T15:41:23.324Z,26.00
2023-06-04T15:43:53.178Z,25.90
2023-06-04T15:46:24.657Z,26.50
2023-06-04T15:48:54.579Z,26.60
2023-06-04T15:51:22.976Z,26.50
2023-06-04T15:53:51.185Z,26.60
2023-06-04T15:56:20.129Z,27.10
2023-06-04T15:58:48.425Z,26.30
2023-06-04T16:01:17.087Z,26.30
2023-06-04T16:03:45.482Z,26.00
2023-06-04T16:06:15.209Z,26.20
2023-06-04T16:08:43.461Z,26.20
2023-06-04T16:11:11.824Z,25.90
2023-06-04T16:13:40.188Z,25.70
2023-06-04T16:16:08.885Z,26.30
2023-06-04T16:18:37.417Z,26.80
2023-06-04T16:21:06.032Z,26.60
2023-06-04T16:23:35.766Z,26.70
2023-06-04T16:26:04.123Z,26.80
2023-06-04T16:28:32.373Z,26.80
2023-06-04T16:31:00.682Z,25.80
2023-06-04T16:33:28.896Z,25.60
2023-06-04T16:35:57.304Z,25.40
2023-06-04T16:38:25.569Z,25.20
2023-06-04T16:40:56.125Z,25.30
2023-06-04T16:43:24.349Z,25.70
2023-06-04T16:45:55.164Z,25.90
2023-06-04T16:48:23.485Z,25.70
2023-06-04T16:50:51.752Z,25.70
2023-06-04T16:53:19.977Z,25.90
2023-06-04T16:55:48.596Z,25.80
2023-06-04T16:58:18.589Z,25.70
2023-06-04T17:00:48.424Z,25.80
2023-06-04T17:03:16.966Z,25.90
2023-06-04T17:05:48.376Z,26.30
2023-06-04T17:08:19.650Z,26.40
2023-06-04T17:10:48.477Z,26.00
2023-06-04T17:13:18.234Z,25.70
2023-06-04T17:15:46.638Z,25.90
2023-06-04T17:18:14.999Z,25.90
2023-06-04T17:20:43.340Z,25.80
2023-06-04T17:23:27.971Z,25.50
2023-06-04T17:25:56.206Z,25.60
2023-06-04T17:28:26.392Z,25.40
2023-06-04T17:30:57.532Z,25.50
2023-06-04T17:33:25.860Z,25.30
2023-06-04T17:35:59.980Z,25.00
2023-06-04T17:38:28.211Z,24.80
2023-06-04T17:40:59.065Z,25.00
2023-06-04T17:43:30.471Z,24.90
2023-06-04T17:46:01.926Z,24.60
2023-06-04T17:48:30.175Z,24.40
2023-06-04T17:50:58.465Z,23.70
2023-06-04T17:53:26.780Z,23.10
2023-06-04T17:56:07.122Z,22.90
2023-06-04T17:58:36.925Z,22.20
2023-06-04T18:01:05.203Z,21.10
2023-06-04T18:03:33.488Z,20.20
2023-06-04T18:06:08.512Z,19.70
2023-06-04T18:08:39.985Z,19.20
2023-06-04T18:11:08.452Z,18.80
2023-06-04T18:13:40.708Z,18.60
2023-06-04T18:16:13.674Z,18.30
2023-06-04T18:18:44.997Z,18.20
2023-06-04T18:21:16.468Z,18.00
2023-06-04T18:23:50.636Z,17.90
2023-06-04T18:26:19.392Z,17.70
2023-06-04T18:28:49.013Z,17.40
2023-06-04T18:31:19.611Z,17.30
2023-06-04T18:33:55.171Z,17.20
2023-06-04T18:36:23.400Z,17.10
2023-06-04T18:38:51.598Z,16.90
2023-06-04T18:41:25.945Z,16.70
2023-06-04T18:43:55.880Z,16.50
2023-06-04T18:46:30.663Z,16.20
2023-06-04T18:49:02.826Z,16.00
2023-06-04T18:51:31.867Z,15.90
2023-06-04T18:54:00.111Z,15.70
2023-06-04T18:56:29.935Z,15.50
2023-06-04T18:58:59.732Z,15.30
2023-06-04T19:01:28.888Z,15.10
2023-06-04T19:03:57.390Z,14.90
2023-06-04T19:06:29.988Z,14.80
2023-06-04T19:09:04.746Z,14.60
2023-06-04T19:11:33.056Z,14.50
2023-06-04T19:14:02.898Z,14.30
2023-06-04T19:16:31.180Z,14.20
2023-06-04T19:18:59.536Z,14.10
2023-06-04T19:21:28.054Z,13.90
2023-06-04T19:23:56.374Z,13.70
2023-06-04T19:26:24.718Z,13.60
2023-06-04T19:28:56.064Z,13.40
2023-06-04T19:31:28.805Z,13.20
2023-06-04T19:33:57.364Z,13.20
2023-06-04T19:36:26.187Z,13.10
2023-06-04T19:38:59.221Z,13.00
2023-06-04T19:41:28.737Z,12.80
2023-06-04T19:43:56.973Z,12.80
2023-06-04T19:46:26.588Z,12.60
2023-06-04T19:48:54.969Z,12.50
2023-06-04T19:51:25.791Z,12.40
2023-06-04T19:53:58.891Z,12.20
2023-06-04T19:56:27.177Z,12.20
2023-06-04T19:58:55.567Z,12.20
2023-06-04T20:01:23.908Z,12.10
2023-06-04T20:03:53.713Z,12.00
2023-06-04T20:06:22.042Z,11.90
2023-06-04T20:08:50.619Z,11.70
2023-06-04T20:11:25.604Z,11.70
2023-06-04T20:13:53.943Z,11.60
2023-06-04T20:16:22.261Z,11.50
2023-06-04T20:18:54.471Z,11.40
2023-06-04T20:21:24.094Z,11.20
2023-06-04T20:23:58.303Z,11.10
2023-06-04T20:26:27.772Z,11.00
2023-06-04T20:28:56.090Z,10.90
2023-06-04T20:31:24.687Z,10.90
2023-06-04T20:33:56.703Z,10.80
2023-06-04T20:36:27.658Z,10.70
2023-06-04T20:38:57.321Z,10.60
2023-06-04T20:41:26.182Z,10.50
2023-06-04T20:43:55.635Z,10.40
2023-06-04T20:46:24.154Z,10.40
2023-06-04T20:48:52.672Z,10.30
2023-06-04T20:51:20.992Z,10.20
2023-06-04T20:53:54.692Z,10.10
2023-06-04T20:56:24.593Z,10.10
2023-06-04T20:58:55.820Z,10.00
2023-06-04T21:01:24.157Z,10.00
2023-06-04T21:03:52.619Z,9.90
2023-06-04T21:06:20.976Z,9.80
2023-06-04T21:08:50.686Z,9.80
2023-06-04T21:11:21.744Z,9.70
2023-06-04T21:13:50.031Z,9.60
2023-06-04T21:16:18.368Z,9.50
2023-06-04T21:18:47.066Z,9.50
2023-06-04T21:21:15.334Z,9.40
2023-06-04T21:23:43.636Z,9.40
2023-06-04T21:26:13.380Z,9.30
2023-06-04T21:28:41.658Z,9.20
2023-06-04T21:31:10.281Z,9.20
2023-06-04T21:33:38.737Z,9.20
2023-06-04T21:36:07.397Z,9.10
2023-06-04T21:38:35.830Z,9.10
2023-06-04T21:41:04.510Z,9.00
2023-06-04T21:43:34.209Z,8.90
2023-06-04T21:46:02.828Z,8.90
2023-06-04T21:48:31.156Z,8.80
2023-06-04T21:50:59.392Z,8.80
2023-06-04T21:53:27.641Z,8.70
2023-06-04T21:55:55.849Z,8.60
2023-06-04T21:58:24.154Z,8.50
2023-06-04T22:00:53.880Z,8.50
2023-06-04T22:03:22.169Z,8.40
2023-06-04T22:05:50.502Z,8.40
2023-06-04T22:08:19.018Z,8.40
2023-06-04T22:10:47.300Z,8.30
2023-06-04T22:13:16.260Z,8.20
2023-06-04T22:15:44.516Z,8.20
2023-06-04T22:18:14.389Z,8.20
2023-06-04T22:20:42.912Z,8.10
2023-06-04T22:23:11.244Z,8.00
2023-06-04T22:25:39.562Z,8.00
2023-06-04T22:28:07.920Z,8.00
2023-06-04T22:30:36.300Z,7.90
2023-06-04T22:33:04.742Z,7.90
2023-06-04T22:35:34.473Z,7.80
2023-06-04T22:38:02.681Z,7.80
2023-06-04T22:40:30.946Z,7.80
2023-06-04T22:42:59.241Z,7.70
2023-06-04T22:45:27.648Z,7.70
2023-06-04T22:47:55.949Z,7.60
2023-06-04T22:50:24.795Z,7.60
2023-06-04T22:52:54.625Z,7.60
2023-06-04T22:55:23.085Z,7.50
2023-06-04T22:57:52.787Z,7.50
2023-06-04T23:00:21.211Z,7.50
2023-06-04T23:02:49.622Z,7.40
2023-06-04T23:05:18.010Z,7.40
2023-06-04T23:07:46.518Z,7.30
2023-06-04T23:10:16.440Z,7.30
2023-06-04T23:12:44.776Z,7.30
2023-06-04T23:15:22.984Z,7.20
2023-06-04T23:17:51.790Z,7.20
2023-06-04T23:20:20.785Z,7.10
2023-06-04T23:22:49.099Z,7.10
2023-06-04T23:25:18.877Z,7.10
2023-06-04T23:27:47.172Z,7.10
2023-06-04T23:30:16.389Z,7.00
2023-06-04T23:32:44.701Z,7.00
2023-06-04T23:35:13.023Z,6.90
2023-06-04T23:37:41.484Z,6.90
2023-06-04T23:40:10.855Z,6.90
2023-06-04T23:42:40.500Z,6.90
2023-06-04T23:45:09.901Z,6.80
2023-06-04T23:47:38.234Z,6.80
2023-06-04T23:50:07.584Z,6.80
2023-06-04T23:52:35.850Z,6.80
2023-06-04T23:55:04.124Z,6.70
2023-06-04T23:57:32.352Z,6.70
